Time;durP1;ratioP1;P1;durP2;ratioP2;P2;SDS_P1;SDS_P2;PMS_P1;PMS_P2;Temp;Humidity;BMP_temperature;BMP_pressure;BME280_temperature;BME280_humidity;BME280_pressure;Samples;Min_cycle;Max_cycle;Signal;HPM_P1;HPM_P2
2023/12/31 00:01:04;;;;;;;;;;;4.40;88.20;;;;;;4994799;28;89682;-46
2023/12/31 00:03:29;;;;;;;;;;;4.40;88.30;;;;;;5004768;28;87041;-46
2023/12/31 00:05:55;;;;;;;;;;;4.40;88.30;;;;;;4995364;28;87595;-46
2023/12/31 00:08:20;;;;;;;;;;;4.40;88.30;;;;;;4999405;28;86895;-46
2023/12/31 00:10:46;;;;;;;;;;;4.30;88.40;;;;;;4996143;28;87410;-47
2023/12/31 00:13:11;;;;;;;;;;;4.40;88.40;;;;;;4999035;28;86884;-46
2023/12/31 00:15:37;;;;;;;;;;;4.40;88.50;;;;;;4995826;28;86839;-46
2023/12/31 00:18:02;;;;;;;;;;;4.40;88.20;;;;;;4998010;28;86826;-45
2023/12/31 00:20:28;;;;;;;;;;;4.40;88.30;;;;;;4995328;28;87677;-46
2023/12/31 00:22:54;;;;;;;;;;;4.40;88.20;;;;;;4999260;28;86997;-47
2023/12/31 00:25:19;;;;;;;;;;;4.40;88.30;;;;;;4997415;28;87890;-46
2023/12/31 00:27:45;;;;;;;;;;;4.30;88.30;;;;;;4995390;28;87023;-46
2023/12/31 00:30:11;;;;;;;;;;;4.40;88.30;;;;;;4999173;28;87903;-46
2023/12/31 00:32:37;;;;;;;;;;;4.40;88.30;;;;;;4996298;28;88588;-45
2023/12/31 00:35:03;;;;;;;;;;;4.40;88.30;;;;;;4999316;28;87077;-46
2023/12/31 00:37:29;;;;;;;;;;;4.40;88.30;;;;;;4995340;28;86904;-45
2023/12/31 00:39:54;;;;;;;;;;;4.30;88.20;;;;;;4994823;28;88592;-46
2023/12/31 00:42:20;;;;;;;;;;;4.30;88.30;;;;;;4995658;28;86239;-45
2023/12/31 00:44:46;;;;;;;;;;;4.30;88.40;;;;;;4999284;28;86952;-46
2023/12/31 00:47:11;;;;;;;;;;;4.30;88.20;;;;;;4997777;28;87346;-46
2023/12/31 00:49:37;;;;;;;;;;;4.40;88.20;;;;;;4997942;28;88056;-46
2023/12/31 00:52:02;;;;;;;;;;;4.30;88.10;;;;;;4998596;28;87374;-47
2023/12/31 00:54:28;;;;;;;;;;;4.40;88.00;;;;;;4998799;28;87080;-46
2023/12/31 00:56:53;;;;;;;;;;;4.30;88.70;;;;;;4995215;28;86895;-47
2023/12/31 00:59:19;;;;;;;;;;;4.30;88.20;;;;;;4998542;28;87516;-46
2023/12/31 01:01:45;;;;;;;;;;;4.30;88.10;;;;;;4995284;28;87076;-46
2023/12/31 01:04:10;;;;;;;;;;;4.30;88.10;;;;;;4997895;28;87143;-46
2023/12/31 01:06:36;;;;;;;;;;;4.30;88.10;;;;;;4997942;28;86741;-46
2023/12/31 01:09:02;;;;;;;;;;;4.30;88.10;;;;;;4994683;28;86949;-45
2023/12/31 01:11:27;;;;;;;;;;;4.30;88.10;;;;;;4997844;28;88596;-46
2023/12/31 01:13:54;;;;;;;;;;;4.30;88.20;;;;;;4994388;28;88051;-45
2023/12/31 01:16:19;;;;;;;;;;;4.30;88.10;;;;;;4998577;28;87695;-45
2023/12/31 01:18:45;;;;;;;;;;;4.30;88.00;;;;;;4997047;28;87522;-46
2023/12/31 01:21:10;;;;;;;;;;;4.30;88.00;;;;;;4995313;28;86999;-46
2023/12/31 01:23:36;;;;;;;;;;;4.30;88.10;;;;;;4998634;28;86948;-46
2023/12/31 01:26:02;;;;;;;;;;;4.30;88.10;;;;;;4997261;28;88444;-47
2023/12/31 01:28:27;;;;;;;;;;;4.30;88.20;;;;;;4998141;28;87957;-46
2023/12/31 01:30:53;;;;;;;;;;;4.30;88.20;;;;;;4998048;28;87815;-46
2023/12/31 01:33:18;;;;;;;;;;;4.30;88.20;;;;;;4996049;28;87035;-46
2023/12/31 01:35:44;;;;;;;;;;;4.20;88.20;;;;;;4998068;28;87037;-46
2023/12/31 01:38:10;;;;;;;;;;;4.30;88.20;;;;;;4993212;28;89211;-46
2023/12/31 01:40:35;;;;;;;;;;;4.30;88.20;;;;;;4994278;28;87083;-46
2023/12/31 01:43:01;;;;;;;;;;;4.20;88.10;;;;;;4994522;28;86902;-45
2023/12/31 01:45:26;;;;;;;;;;;4.30;88.10;;;;;;4994846;28;87438;-46
2023/12/31 01:47:52;;;;;;;;;;;4.30;88.00;;;;;;4997758;28;87042;-47
2023/12/31 01:50:19;;;;;;;;;;;4.30;88.00;;;;;;4997395;28;88131;-46
2023/12/31 01:52:45;;;;;;;;;;;4.20;88.10;;;;;;4997408;28;87022;-46
2023/12/31 01:55:11;;;;;;;;;;;4.20;88.10;;;;;;4995410;28;88024;-46
2023/12/31 01:57:37;;;;;;;;;;;4.20;88.00;;;;;;4998001;28;87619;-46
2023/12/31 02:00:05;;;;;;;;;;;4.30;88.10;;;;;;4997782;28;87046;-46
2023/12/31 02:02:31;;;;;;;;;;;4.20;88.00;;;;;;4997183;28;87828;-46
2023/12/31 02:04:57;;;;;;;;;;;4.20;88.20;;;;;;4996379;28;87559;-46
2023/12/31 02:07:23;;;;;;;;;;;4.20;88.10;;;;;;4994241;28;87043;-45
2023/12/31 02:09:49;;;;;;;;;;;4.20;88.10;;;;;;4994500;28;86696;-46
2023/12/31 02:12:14;;;;;;;;;;;4.20;88.10;;;;;;5000226;28;87778;-47
2023/12/31 02:14:40;;;;;;;;;;;4.20;88.20;;;;;;4994417;28;86971;-46
2023/12/31 02:17:05;;;;;;;;;;;4.20;88.20;;;;;;4997432;28;87639;-46
2023/12/31 02:19:31;;;;;;;;;;;4.20;88.10;;;;;;4999224;28;86393;-45
2023/12/31 02:21:57;;;;;;;;;;;4.20;88.00;;;;;;5001647;28;86937;-45
2023/12/31 02:24:26;;;;;;;;;;;4.20;88.00;;;;;;4997177;28;88606;-46
2023/12/31 02:26:52;;;;;;;;;;;4.20;88.10;;;;;;5000765;28;88389;-46
2023/12/31 02:29:19;;;;;;;;;;;4.20;88.10;;;;;;5001055;28;88958;-46
2023/12/31 02:31:44;;;;;;;;;;;4.20;88.10;;;;;;4996823;28;87541;-47
2023/12/31 02:34:11;;;;;;;;;;;4.10;87.90;;;;;;5001002;28;87070;-46
2023/12/31 02:36:36;;;;;;;;;;;4.20;88.10;;;;;;4999203;28;88576;-45
2023/12/31 02:39:02;;;;;;;;;;;4.20;88.10;;;;;;4997343;28;87108;-47
2023/12/31 02:41:27;;;;;;;;;;;4.10;88.20;;;;;;5000797;28;87958;-45
2023/12/31 02:43:53;;;;;;;;;;;4.10;88.00;;;;;;4997336;28;86837;-46
2023/12/31 02:46:19;;;;;;;;;;;4.10;88.10;;;;;;4996689;28;87295;-45
2023/12/31 02:48:44;;;;;;;;;;;4.10;88.20;;;;;;4997200;28;86892;-46
2023/12/31 02:51:10;;;;;;;;;;;4.10;88.20;;;;;;4998820;28;89630;-46
2023/12/31 02:53:35;;;;;;;;;;;4.10;88.20;;;;;;5000352;28;87068;-46
2023/12/31 02:56:01;;;;;;;;;;;4.10;88.00;;;;;;4999301;28;87064;-46
2023/12/31 02:58:27;;;;;;;;;;;4.10;88.00;;;;;;4997196;28;87050;-46
2023/12/31 03:00:52;;;;;;;;;;;4.20;88.00;;;;;;5001131;28;86857;-46
2023/12/31 03:03:18;;;;;;;;;;;4.10;88.00;;;;;;5000084;28;87440;-46
2023/12/31 03:05:43;;;;;;;;;;;4.10;88.10;;;;;;4998699;28;87076;-46
2023/12/31 03:08:09;;;;;;;;;;;4.10;88.20;;;;;;4997468;28;86706;-46
2023/12/31 03:10:35;;;;;;;;;;;4.10;88.10;;;;;;4999668;28;87673;-46
2023/12/31 03:13:00;;;;;;;;;;;4.10;88.10;;;;;;4997069;28;86907;-46
2023/12/31 03:15:26;;;;;;;;;;;4.10;88.10;;;;;;5002158;28;87986;-46
2023/12/31 03:17:51;;;;;;;;;;;4.10;87.90;;;;;;4996525;28;87064;-46
2023/12/31 03:20:17;;;;;;;;;;;4.10;88.00;;;;;;5000887;28;86978;-45
2023/12/31 03:22:44;;;;;;;;;;;4.10;87.90;;;;;;4999896;28;87789;-46
2023/12/31 03:25:10;;;;;;;;;;;4.00;87.90;;;;;;4999834;28;87054;-46
2023/12/31 03:27:35;;;;;;;;;;;4.10;88.00;;;;;;4996546;28;87893;-46
2023/12/31 03:30:01;;;;;;;;;;;4.10;88.00;;;;;;4999293;28;87260;-47
2023/12/31 03:32:26;;;;;;;;;;;4.00;87.90;;;;;;4996943;28;86347;-47
2023/12/31 03:34:52;;;;;;;;;;;4.00;87.90;;;;;;4999778;28;86611;-47
2023/12/31 03:37:18;;;;;;;;;;;4.10;88.00;;;;;;5001964;28;87349;-46
2023/12/31 03:39:43;;;;;;;;;;;4.00;87.90;;;;;;4995272;28;87813;-45
2023/12/31 03:42:09;;;;;;;;;;;4.00;87.90;;;;;;4996305;28;87491;-46
2023/12/31 03:44:34;;;;;;;;;;;4.00;87.90;;;;;;4999200;28;87027;-45
2023/12/31 03:47:00;;;;;;;;;;;4.00;87.90;;;;;;4996562;28;87935;-47
2023/12/31 03:49:25;;;;;;;;;;;4.00;87.80;;;;;;4999002;28;87444;-46
2023/12/31 03:51:51;;;;;;;;;;;4.00;87.80;;;;;;4998473;28;87038;-46
2023/12/31 03:54:16;;;;;;;;;;;4.00;87.90;;;;;;4999258;28;87624;-46
2023/12/31 03:56:42;;;;;;;;;;;4.00;87.90;;;;;;4996920;28;86909;-46
2023/12/31 03:59:08;;;;;;;;;;;4.00;87.90;;;;;;5003035;28;86883;-46
2023/12/31 04:01:42;;;;;;;;;;;4.00;87.90;;;;;;4998384;28;88479;-45
2023/12/31 04:04:07;;;;;;;;;;;4.00;87.90;;;;;;4999406;28;87863;-46
2023/12/31 04:06:33;;;;;;;;;;;4.00;87.90;;;;;;4997170;28;88038;-45
2023/12/31 04:08:58;;;;;;;;;;;4.00;87.90;;;;;;4995757;28;87549;-46
2023/12/31 04:11:24;;;;;;;;;;;4.00;87.90;;;;;;4995868;28;87024;-46
2023/12/31 04:13:49;;;;;;;;;;;3.90;87.90;;;;;;4995860;28;86897;-46
2023/12/31 04:16:15;;;;;;;;;;;3.90;87.90;;;;;;4999324;28;87085;-45
2023/12/31 04:18:40;;;;;;;;;;;4.00;87.80;;;;;;4995483;28;86859;-47
2023/12/31 04:21:06;;;;;;;;;;;4.00;87.90;;;;;;5002701;28;86232;-47
2023/12/31 04:23:31;;;;;;;;;;;3.90;87.90;;;;;;4995588;28;86952;-48
2023/12/31 04:25:57;;;;;;;;;;;3.90;87.90;;;;;;5000151;28;86848;-46
2023/12/31 04:28:22;;;;;;;;;;;3.90;87.90;;;;;;5002472;28;88234;-45
2023/12/31 04:30:48;;;;;;;;;;;3.90;87.90;;;;;;4995726;28;87175;-45
2023/12/31 04:33:15;;;;;;;;;;;3.90;87.90;;;;;;5002393;28;86969;-46
2023/12/31 04:35:41;;;;;;;;;;;3.90;88.00;;;;;;4994808;28;86780;-48
2023/12/31 04:38:06;;;;;;;;;;;3.90;87.90;;;;;;4997895;28;87005;-46
2023/12/31 04:40:32;;;;;;;;;;;3.90;87.90;;;;;;5000614;28;87039;-48
2023/12/31 04:42:57;;;;;;;;;;;3.90;87.80;;;;;;4996046;28;87487;-46
2023/12/31 04:45:23;;;;;;;;;;;3.90;87.80;;;;;;4999711;28;86662;-47
2023/12/31 04:47:48;;;;;;;;;;;3.90;87.80;;;;;;4998481;28;88650;-47
2023/12/31 04:50:14;;;;;;;;;;;3.90;87.80;;;;;;4995851;28;86871;-46
2023/12/31 04:52:39;;;;;;;;;;;3.80;87.90;;;;;;4996544;28;87992;-46
2023/12/31 04:55:05;;;;;;;;;;;3.80;87.90;;;;;;4998201;28;87331;-46
2023/12/31 04:57:31;;;;;;;;;;;3.80;87.80;;;;;;4995264;28;87064;-46
2023/12/31 04:59:56;;;;;;;;;;;3.90;87.70;;;;;;4995443;28;87972;-47
2023/12/31 05:02:22;;;;;;;;;;;3.90;87.80;;;;;;4997952;28;87450;-45
2023/12/31 05:04:48;;;;;;;;;;;3.80;87.80;;;;;;4998402;28;86860;-46
2023/12/31 05:07:14;;;;;;;;;;;3.80;87.80;;;;;;4995472;28;87534;-45
2023/12/31 05:09:39;;;;;;;;;;;3.80;87.70;;;;;;4995491;28;86152;-46
2023/12/31 05:12:05;;;;;;;;;;;3.80;87.70;;;;;;4998156;28;86901;-45
2023/12/31 05:14:31;;;;;;;;;;;3.80;87.70;;;;;;4995018;28;88098;-46
2023/12/31 05:16:56;;;;;;;;;;;3.80;87.80;;;;;;4997509;28;87867;-46
2023/12/31 05:19:22;;;;;;;;;;;3.80;87.70;;;;;;4995076;28;87705;-46
2023/12/31 05:21:47;;;;;;;;;;;3.80;87.70;;;;;;4997509;28;87446;-46
2023/12/31 05:24:13;;;;;;;;;;;3.80;87.80;;;;;;5000864;28;87594;-46
2023/12/31 05:26:38;;;;;;;;;;;3.80;87.70;;;;;;5002494;28;87589;-45
2023/12/31 05:29:04;;;;;;;;;;;3.80;87.70;;;;;;4998139;28;87393;-46
2023/12/31 05:31:30;;;;;;;;;;;3.70;87.70;;;;;;4997932;28;88080;-47
2023/12/31 05:33:55;;;;;;;;;;;3.80;87.70;;;;;;4997060;28;87571;-47
2023/12/31 05:36:21;;;;;;;;;;;3.80;87.60;;;;;;4998355;28;87026;-46
2023/12/31 05:38:46;;;;;;;;;;;3.70;87.70;;;;;;5001138;28;87482;-46
2023/12/31 05:41:12;;;;;;;;;;;3.70;87.70;;;;;;4995777;28;88467;-44
2023/12/31 05:43:37;;;;;;;;;;;3.70;87.70;;;;;;4995482;28;87041;-45
2023/12/31 05:46:03;;;;;;;;;;;3.70;87.60;;;;;;5003416;28;86993;-45
2023/12/31 05:48:28;;;;;;;;;;;3.70;87.70;;;;;;4994807;28;87560;-45
2023/12/31 05:50:54;;;;;;;;;;;3.70;87.70;;;;;;4995184;28;87510;-47
2023/12/31 05:53:20;;;;;;;;;;;3.70;87.60;;;;;;4997761;28;87514;-46
2023/12/31 05:55:46;;;;;;;;;;;3.70;87.60;;;;;;4996967;28;87714;-46
2023/12/31 05:58:12;;;;;;;;;;;3.70;87.60;;;;;;4997911;28;86699;-46
2023/12/31 06:00:37;;;;;;;;;;;3.70;87.60;;;;;;5001066;28;87398;-45
2023/12/31 06:03:03;;;;;;;;;;;3.70;87.60;;;;;;4996480;28;87691;-45
2023/12/31 06:05:28;;;;;;;;;;;3.70;87.70;;;;;;4995944;28;88007;-46
2023/12/31 06:07:54;;;;;;;;;;;3.70;87.70;;;;;;5002732;28;87489;-47
2023/12/31 06:10:19;;;;;;;;;;;3.70;87.70;;;;;;4999597;28;87132;-44
2023/12/31 06:12:45;;;;;;;;;;;3.70;87.60;;;;;;5000132;28;88432;-46
2023/12/31 06:15:11;;;;;;;;;;;3.70;87.60;;;;;;4996123;28;86941;-46
2023/12/31 06:17:36;;;;;;;;;;;3.70;87.60;;;;;;4997232;28;87778;-46
2023/12/31 06:20:03;;;;;;;;;;;3.70;87.50;;;;;;5000687;28;88721;-46
2023/12/31 06:22:29;;;;;;;;;;;3.70;87.60;;;;;;5000056;28;86301;-46
2023/12/31 06:24:54;;;;;;;;;;;3.70;87.50;;;;;;4999786;28;86950;-48
2023/12/31 06:27:20;;;;;;;;;;;3.70;87.60;;;;;;4998906;28;87466;-46
2023/12/31 06:29:45;;;;;;;;;;;3.70;87.50;;;;;;5000769;28;87972;-46
2023/12/31 06:32:11;;;;;;;;;;;3.70;87.60;;;;;;4997927;28;87592;-45
2023/12/31 06:34:36;;;;;;;;;;;3.60;87.50;;;;;;4997443;28;86907;-46
2023/12/31 06:37:02;;;;;;;;;;;3.60;87.50;;;;;;5004719;28;87104;-46
2023/12/31 06:39:29;;;;;;;;;;;3.60;87.50;;;;;;4997666;28;88434;-47
2023/12/31 06:41:55;;;;;;;;;;;3.60;87.40;;;;;;5003764;28;87142;-46
2023/12/31 06:44:21;;;;;;;;;;;3.60;87.40;;;;;;5000842;28;87793;-46
2023/12/31 06:46:46;;;;;;;;;;;3.60;87.40;;;;;;5001715;28;86778;-46
2023/12/31 06:49:12;;;;;;;;;;;3.60;87.50;;;;;;4997084;28;87851;-47
2023/12/31 06:51:39;;;;;;;;;;;3.60;87.40;;;;;;5000230;28;87789;-46
2023/12/31 06:54:04;;;;;;;;;;;3.60;87.40;;;;;;4999290;28;87764;-46
2023/12/31 06:56:30;;;;;;;;;;;3.60;87.40;;;;;;5001355;28;87833;-47
2023/12/31 06:58:56;;;;;;;;;;;3.60;87.40;;;;;;4993544;28;88600;-46
2023/12/31 07:01:21;;;;;;;;;;;3.60;87.40;;;;;;4995771;28;87021;-48
2023/12/31 07:03:47;;;;;;;;;;;3.60;87.30;;;;;;4999118;28;87550;-47
2023/12/31 07:06:13;;;;;;;;;;;3.60;87.30;;;;;;4997865;28;87551;-46
2023/12/31 07:08:38;;;;;;;;;;;3.60;87.20;;;;;;4995576;28;87164;-45
2023/12/31 07:11:04;;;;;;;;;;;3.60;87.20;;;;;;4996958;28;86684;-46
2023/12/31 07:13:30;;;;;;;;;;;3.60;87.20;;;;;;5004914;28;87069;-45
2023/12/31 07:15:59;;;;;;;;;;;3.60;87.20;;;;;;4996316;28;87795;-45
2023/12/31 07:18:25;;;;;;;;;;;3.60;87.30;;;;;;4997685;28;88700;-48
2023/12/31 07:20:52;;;;;;;;;;;3.60;87.30;;;;;;4998920;28;87037;-47
2023/12/31 07:23:17;;;;;;;;;;;3.60;87.30;;;;;;4998964;28;87858;-46
2023/12/31 07:25:43;;;;;;;;;;;3.60;87.30;;;;;;4993012;28;87382;-47
2023/12/31 07:28:09;;;;;;;;;;;3.60;87.10;;;;;;4993830;28;87105;-46
2023/12/31 07:30:35;;;;;;;;;;;3.60;87.20;;;;;;5000821;28;86928;-46
2023/12/31 07:33:00;;;;;;;;;;;3.60;87.30;;;;;;5003828;28;86976;-46
2023/12/31 07:35:26;;;;;;;;;;;3.50;87.20;;;;;;4996819;28;86193;-48
2023/12/31 07:37:52;;;;;;;;;;;3.60;87.10;;;;;;4991879;28;88746;-49
2023/12/31 07:40:17;;;;;;;;;;;3.60;87.20;;;;;;4998209;28;87104;-46
2023/12/31 07:42:43;;;;;;;;;;;3.50;87.50;;;;;;4996765;28;87926;-47
2023/12/31 07:45:08;;;;;;;;;;;3.60;87.30;;;;;;4997845;28;87371;-46
2023/12/31 07:47:35;;;;;;;;;;;3.60;87.30;;;;;;4994922;28;87301;-45
2023/12/31 07:50:02;;;;;;;;;;;3.50;87.30;;;;;;4998780;28;87067;-45
2023/12/31 07:52:28;;;;;;;;;;;3.60;87.40;;;;;;5000622;28;88567;-46
2023/12/31 07:54:53;;;;;;;;;;;3.60;87.40;;;;;;4997570;28;87112;-46
2023/12/31 07:57:19;;;;;;;;;;;3.60;87.30;;;;;;4996307;28;90529;-45
2023/12/31 07:59:45;;;;;;;;;;;3.50;87.30;;;;;;4997766;28;86190;-45
2023/12/31 08:02:10;;;;;;;;;;;3.60;87.40;;;;;;4997739;28;87514;-45
2023/12/31 08:04:36;;;;;;;;;;;3.60;87.20;;;;;;4997333;28;87456;-46
2023/12/31 08:07:03;;;;;;;;;;;3.60;87.30;;;;;;4999108;28;87952;-45
2023/12/31 08:09:29;;;;;;;;;;;3.60;87.30;;;;;;4999678;28;89209;-47
2023/12/31 08:11:55;;;;;;;;;;;3.60;87.40;;;;;;4997726;28;88501;-46
2023/12/31 08:14:21;;;;;;;;;;;3.50;87.30;;;;;;4996389;28;88549;-46
2023/12/31 08:16:46;;;;;;;;;;;3.60;87.40;;;;;;5004423;28;87838;-46
2023/12/31 08:19:12;;;;;;;;;;;3.60;87.40;;;;;;4998044;28;87012;-46
2023/12/31 08:21:37;;;;;;;;;;;3.60;87.30;;;;;;4996287;28;87861;-46
2023/12/31 08:24:03;;;;;;;;;;;3.60;87.40;;;;;;4994443;28;86762;-46
2023/12/31 08:26:29;;;;;;;;;;;3.60;87.60;;;;;;4999235;28;87064;-46
2023/12/31 08:28:54;;;;;;;;;;;3.50;87.70;;;;;;5001666;28;87935;-45
2023/12/31 08:31:20;;;;;;;;;;;3.50;87.70;;;;;;4995470;28;89496;-46
2023/12/31 08:33:45;;;;;;;;;;;3.60;87.70;;;;;;4998003;28;87034;-46
2023/12/31 08:36:11;;;;;;;;;;;3.50;87.80;;;;;;4996654;28;87025;-46
2023/12/31 08:38:37;;;;;;;;;;;3.50;87.70;;;;;;5003876;28;88417;-45
2023/12/31 08:41:02;;;;;;;;;;;3.50;87.70;;;;;;4995339;28;86931;-46
2023/12/31 08:43:28;;;;;;;;;;;3.60;87.70;;;;;;5001255;28;87424;-47
2023/12/31 08:45:54;;;;;;;;;;;3.50;87.70;;;;;;4996438;28;87022;-46
2023/12/31 08:48:20;;;;;;;;;;;3.50;87.60;;;;;;4998170;28;86758;-46
2023/12/31 08:50:45;;;;;;;;;;;3.50;87.80;;;;;;4997556;28;87345;-46
2023/12/31 08:53:11;;;;;;;;;;;3.50;87.80;;;;;;5002759;28;86903;-46
2023/12/31 08:55:36;;;;;;;;;;;3.50;87.90;;;;;;4996337;28;88116;-46
2023/12/31 08:58:02;;;;;;;;;;;3.50;88.00;;;;;;4999505;28;87452;-46
2023/12/31 09:00:28;;;;;;;;;;;3.50;87.90;;;;;;4999494;28;86934;-45
2023/12/31 09:02:54;;;;;;;;;;;3.50;88.40;;;;;;4996988;28;87426;-46
2023/12/31 09:05:20;;;;;;;;;;;3.50;87.70;;;;;;5005473;28;87051;-46
2023/12/31 09:07:45;;;;;;;;;;;3.50;87.80;;;;;;5000439;28;86929;-46
2023/12/31 09:10:11;;;;;;;;;;;3.50;88.20;;;;;;4997545;28;88620;-46
2023/12/31 09:12:37;;;;;;;;;;;3.50;88.00;;;;;;4996582;28;86206;-45
2023/12/31 09:15:03;;;;;;;;;;;3.50;88.10;;;;;;4996725;28;87191;-45
2023/12/31 09:17:28;;;;;;;;;;;3.50;88.40;;;;;;4993690;28;87708;-47
2023/12/31 09:19:57;;;;;;;;;;;3.50;88.10;;;;;;4999112;28;87906;-46
2023/12/31 09:22:23;;;;;;;;;;;3.50;88.10;;;;;;4993423;28;87512;-45
2023/12/31 09:24:50;;;;;;;;;;;3.50;88.10;;;;;;4997578;28;87190;-46
2023/12/31 09:27:19;;;;;;;;;;;3.50;88.10;;;;;;4997262;28;88120;-47
2023/12/31 09:29:45;;;;;;;;;;;3.50;88.40;;;;;;4993762;28;87544;-46
2023/12/31 09:32:11;;;;;;;;;;;3.50;88.30;;;;;;4997880;28;86990;-46
2023/12/31 09:34:36;;;;;;;;;;;3.50;88.40;;;;;;4995277;28;86876;-46
2023/12/31 09:37:02;;;;;;;;;;;3.50;88.20;;;;;;4997830;28;86589;-46
2023/12/31 09:39:27;;;;;;;;;;;3.50;88.10;;;;;;4995413;28;86922;-45
2023/12/31 09:41:54;;;;;;;;;;;3.50;88.20;;;;;;5000138;28;86969;-47
2023/12/31 09:44:19;;;;;;;;;;;3.50;88.20;;;;;;4996809;28;87784;-46
2023/12/31 09:47:03;;;;;;;;;;;3.50;88.30;;;;;;4998303;28;87771;-45
2023/12/31 09:49:29;;;;;;;;;;;3.50;88.20;;;;;;4993630;28;88526;-45
2023/12/31 09:51:54;;;;;;;;;;;3.50;88.30;;;;;;4996029;28;86873;-45
2023/12/31 09:54:20;;;;;;;;;;;3.60;88.10;;;;;;4997757;28;87908;-46
2023/12/31 09:56:47;;;;;;;;;;;3.50;88.20;;;;;;4997820;28;88576;-46
2023/12/31 09:59:15;;;;;;;;;;;3.50;88.40;;;;;;5001194;28;86899;-45
2023/12/31 10:01:42;;;;;;;;;;;3.50;88.10;;;;;;4996230;28;86734;-47
2023/12/31 10:04:07;;;;;;;;;;;3.50;88.30;;;;;;4998490;28;87380;-46
2023/12/31 10:06:33;;;;;;;;;;;3.50;88.50;;;;;;4993788;28;86915;-46
2023/12/31 10:09:00;;;;;;;;;;;3.50;88.20;;;;;;4997405;28;87835;-46
2023/12/31 10:11:26;;;;;;;;;;;3.60;88.20;;;;;;5002105;28;86980;-47
2023/12/31 10:13:51;;;;;;;;;;;3.60;88.80;;;;;;4996265;28;87006;-46
2023/12/31 10:16:18;;;;;;;;;;;3.60;88.40;;;;;;5004835;28;88467;-46
2023/12/31 10:18:43;;;;;;;;;;;3.60;88.30;;;;;;5001627;28;87110;-46
2023/12/31 10:21:09;;;;;;;;;;;3.60;88.40;;;;;;4995231;28;86981;-45
2023/12/31 10:23:37;;;;;;;;;;;3.60;88.80;;;;;;4993450;28;87554;-46
2023/12/31 10:26:02;;;;;;;;;;;3.60;88.60;;;;;;5003448;28;86231;-46
2023/12/31 10:28:28;;;;;;;;;;;3.60;88.40;;;;;;4997440;28;87401;-45
2023/12/31 10:30:54;;;;;;;;;;;3.60;88.70;;;;;;4998357;28;88443;-46
2023/12/31 10:33:26;;;;;;;;;;;3.60;88.70;;;;;;4992991;28;88241;-47
2023/12/31 10:36:01;;;;;;;;;;;3.60;89.00;;;;;;4996517;28;87415;-47
2023/12/31 10:38:26;;;;;;;;;;;3.60;89.60;;;;;;4997614;28;86845;-46
2023/12/31 10:40:53;;;;;;;;;;;3.60;89.30;;;;;;4995166;28;86870;-46
2023/12/31 10:43:20;;;;;;;;;;;3.60;89.50;;;;;;4995188;28;88446;-46
2023/12/31 10:45:46;;;;;;;;;;;3.70;89.50;;;;;;4997096;28;86983;-46
2023/12/31 10:48:12;;;;;;;;;;;3.70;89.50;;;;;;5006326;28;86790;-47
2023/12/31 10:50:39;;;;;;;;;;;3.70;89.70;;;;;;4998394;28;86249;-46
2023/12/31 10:53:07;;;;;;;;;;;3.70;89.60;;;;;;4998294;28;86976;-46
2023/12/31 10:55:33;;;;;;;;;;;3.70;89.70;;;;;;5001598;28;88446;-46
2023/12/31 10:57:58;;;;;;;;;;;3.70;89.60;;;;;;5000179;28;88055;-45
2023/12/31 11:00:24;;;;;;;;;;;3.70;89.60;;;;;;4997464;28;87492;-45
2023/12/31 11:02:50;;;;;;;;;;;3.70;89.60;;;;;;4998829;28;87415;-46
2023/12/31 11:05:16;;;;;;;;;;;3.70;89.80;;;;;;4997766;28;86883;-47
2023/12/31 11:07:42;;;;;;;;;;;3.70;89.70;;;;;;4996357;28;87007;-46
2023/12/31 11:10:08;;;;;;;;;;;3.70;89.70;;;;;;4999738;28;88134;-46
2023/12/31 11:12:34;;;;;;;;;;;3.70;89.70;;;;;;5000209;28;86995;-46
2023/12/31 11:15:03;;;;;;;;;;;3.70;90.00;;;;;;4999563;28;86792;-45
2023/12/31 11:17:31;;;;;;;;;;;3.70;90.00;;;;;;4998194;28;87361;-46
2023/12/31 11:20:09;;;;;;;;;;;3.70;89.60;;;;;;5002343;28;87336;-47
2023/12/31 11:22:38;;;;;;;;;;;3.80;89.70;;;;;;4999562;28;88222;-46
2023/12/31 11:25:04;;;;;;;;;;;3.80;89.80;;;;;;4995842;28;86925;-45
2023/12/31 11:27:33;;;;;;;;;;;3.80;89.90;;;;;;4999128;28;88351;-46
2023/12/31 11:29:58;;;;;;;;;;;3.80;90.00;;;;;;5000288;28;88588;-46
2023/12/31 11:32:27;;;;;;;;;;;3.80;90.00;;;;;;5003484;28;87036;-45
2023/12/31 11:34:53;;;;;;;;;;;3.80;90.00;;;;;;5004906;28;87185;-46
2023/12/31 11:37:18;;;;;;;;;;;3.80;90.00;;;;;;4996402;28;87406;-45
2023/12/31 11:39:48;;;;;;;;;;;3.80;89.80;;;;;;4997187;28;87775;-46
2023/12/31 11:42:16;;;;;;;;;;;3.80;90.10;;;;;;4996976;28;87401;-46
2023/12/31 11:44:46;;;;;;;;;;;3.80;90.10;;;;;;5002502;28;87764;-46
2023/12/31 11:47:15;;;;;;;;;;;3.80;90.10;;;;;;4997222;28;87915;-46
2023/12/31 11:50:02;;;;;;;;;;;3.80;90.10;;;;;;4998159;28;88592;-48
2023/12/31 11:52:37;;;;;;;;;;;3.80;90.10;;;;;;4991460;28;88341;-46
2023/12/31 11:55:03;;;;;;;;;;;3.80;90.10;;;;;;4995644;28;87374;-46
2023/12/31 11:57:30;;;;;;;;;;;3.80;90.30;;;;;;4997291;28;86860;-46
2023/12/31 11:59:56;;;;;;;;;;;3.80;90.30;;;;;;4999486;28;88750;-46
2023/12/31 12:02:21;;;;;;;;;;;3.80;90.20;;;;;;4999743;28;87489;-47
2023/12/31 12:04:47;;;;;;;;;;;3.90;90.30;;;;;;5000159;28;86671;-46
2023/12/31 12:07:13;;;;;;;;;;;3.90;90.30;;;;;;4995695;28;87076;-47
2023/12/31 12:09:39;;;;;;;;;;;3.90;90.30;;;;;;4998000;28;88595;-46
2023/12/31 12:12:05;;;;;;;;;;;3.90;90.50;;;;;;4998640;28;87946;-47
2023/12/31 12:14:31;;;;;;;;;;;3.90;90.40;;;;;;5001149;28;88612;-46
2023/12/31 12:16:57;;;;;;;;;;;3.90;90.50;;;;;;4999348;28;86975;-46
2023/12/31 12:19:23;;;;;;;;;;;3.90;90.40;;;;;;4999958;28;87020;-45
2023/12/31 12:21:48;;;;;;;;;;;3.90;90.40;;;;;;5000999;28;88636;-48
2023/12/31 12:24:15;;;;;;;;;;;3.90;90.40;;;;;;4999786;28;86977;-46
2023/12/31 12:26:41;;;;;;;;;;;3.90;90.40;;;;;;4995155;28;87764;-46
2023/12/31 12:29:08;;;;;;;;;;;4.00;90.50;;;;;;4999424;28;87554;-46
2023/12/31 12:31:35;;;;;;;;;;;3.90;90.50;;;;;;4997323;28;86956;-46
2023/12/31 12:34:02;;;;;;;;;;;4.00;91.00;;;;;;4999251;28;88129;-45
2023/12/31 12:36:28;;;;;;;;;;;4.00;90.70;;;;;;4997610;28;88597;-46
2023/12/31 12:38:53;;;;;;;;;;;4.00;90.60;;;;;;4998845;28;87690;-47
2023/12/31 12:41:20;;;;;;;;;;;4.00;90.70;;;;;;4995638;28;88589;-46
2023/12/31 12:43:46;;;;;;;;;;;4.00;90.70;;;;;;4998272;28;87000;-45
2023/12/31 12:46:11;;;;;;;;;;;4.10;90.70;;;;;;4998124;28;87234;-46
2023/12/31 12:48:47;;;;;;;;;;;4.10;90.80;;;;;;4994288;28;88448;-46
2023/12/31 12:51:13;;;;;;;;;;;4.10;90.70;;;;;;4997728;28;86924;-46
2023/12/31 12:53:38;;;;;;;;;;;4.10;90.60;;;;;;4999390;28;86746;-46
2023/12/31 12:56:04;;;;;;;;;;;4.10;90.80;;;;;;4998385;28;87410;-45
2023/12/31 12:58:29;;;;;;;;;;;4.10;90.80;;;;;;5001287;28;87325;-45
2023/12/31 13:00:56;;;;;;;;;;;4.10;90.70;;;;;;4996668;28;88571;-45
2023/12/31 13:03:21;;;;;;;;;;;4.20;90.90;;;;;;4996421;28;87014;-46
2023/12/31 13:05:47;;;;;;;;;;;4.20;90.80;;;;;;4996799;28;87016;-47
2023/12/31 13:08:12;;;;;;;;;;;4.20;90.80;;;;;;4992670;28;87271;-46
2023/12/31 13:10:38;;;;;;;;;;;4.20;90.70;;;;;;4998273;28;87123;-46
2023/12/31 13:13:04;;;;;;;;;;;4.20;90.70;;;;;;4992963;28;88327;-45
2023/12/31 13:15:30;;;;;;;;;;;4.20;90.70;;;;;;4998886;28;88521;-47
2023/12/31 13:17:55;;;;;;;;;;;4.20;90.80;;;;;;4994672;28;86388;-46
2023/12/31 13:20:21;;;;;;;;;;;4.20;90.90;;;;;;4997251;28;87088;-46
2023/12/31 13:22:47;;;;;;;;;;;4.30;90.90;;;;;;4995405;28;87033;-46
2023/12/31 13:25:13;;;;;;;;;;;4.30;90.90;;;;;;5000637;28;89391;-46
2023/12/31 13:27:39;;;;;;;;;;;4.30;90.90;;;;;;4994101;28;88496;-45
2023/12/31 13:30:05;;;;;;;;;;;4.30;90.90;;;;;;4998544;28;87786;-47
2023/12/31 13:32:31;;;;;;;;;;;4.30;91.00;;;;;;4997502;28;87317;-47
2023/12/31 13:34:56;;;;;;;;;;;4.30;90.90;;;;;;4998029;28;88647;-46
2023/12/31 13:37:22;;;;;;;;;;;4.30;90.80;;;;;;4994426;28;87105;-47
2023/12/31 13:39:47;;;;;;;;;;;4.30;90.90;;;;;;5003991;28;87014;-47
2023/12/31 13:42:13;;;;;;;;;;;4.40;90.90;;;;;;4995514;28;86263;-48
2023/12/31 13:44:38;;;;;;;;;;;4.40;90.70;;;;;;4995920;28;87129;-46
2023/12/31 13:47:04;;;;;;;;;;;4.30;90.90;;;;;;4995346;28;88688;-46
2023/12/31 13:49:30;;;;;;;;;;;4.40;91.00;;;;;;5000039;28;88774;-46
2023/12/31 13:51:55;;;;;;;;;;;4.40;90.90;;;;;;4997174;28;87455;-46
2023/12/31 13:54:21;;;;;;;;;;;4.40;91.00;;;;;;4994300;28;87467;-46
2023/12/31 13:56:48;;;;;;;;;;;4.40;91.00;;;;;;5001466;28;87004;-46
2023/12/31 13:59:13;;;;;;;;;;;4.40;90.90;;;;;;4997520;28;87933;-46
2023/12/31 14:01:39;;;;;;;;;;;4.50;91.00;;;;;;5000310;28;87639;-46
2023/12/31 14:04:06;;;;;;;;;;;4.50;91.10;;;;;;4995580;28;86961;-46
2023/12/31 14:06:32;;;;;;;;;;;4.50;91.00;;;;;;4997917;28;86718;-46
2023/12/31 14:08:58;;;;;;;;;;;4.50;90.90;;;;;;4997105;28;89112;-46
2023/12/31 14:11:23;;;;;;;;;;;4.50;91.00;;;;;;4993656;28;87005;-46
2023/12/31 14:13:49;;;;;;;;;;;4.50;90.90;;;;;;4996582;28;89623;-46
2023/12/31 14:16:14;;;;;;;;;;;4.60;90.90;;;;;;5000726;28;86793;-46
2023/12/31 14:18:40;;;;;;;;;;;4.60;91.00;;;;;;5001117;28;87718;-47
2023/12/31 14:21:06;;;;;;;;;;;4.60;91.10;;;;;;5004104;28;87573;-46
2023/12/31 14:23:31;;;;;;;;;;;4.60;90.90;;;;;;5003923;28;87056;-46